sensor_id;sensor_type;location;lat;lon;timestamp;P1;durP1;ratioP1;P2;durP2;ratioP2
53056;SDS011;38940;50.096;4.012;2023-05-27T00:00:00;12.18;;;3.28;;
53056;SDS011;38940;50.096;4.012;2023-05-27T00:02:26;17.48;;;3.50;;
53056;SDS011;38940;50.096;4.012;2023-05-27T00:04:52;14.15;;;3.13;;
53056;SDS011;38940;50.096;4.012;2023-05-27T00:07:18;18.23;;;3.42;;
53056;SDS011;38940;50.096;4.012;2023-05-27T00:09:45;17.60;;;3.63;;
53056;SDS011;38940;50.096;4.012;2023-05-27T00:12:11;17.02;;;3.30;;
53056;SDS011;38940;50.096;4.012;2023-05-27T00:14:37;17.73;;;3.58;;
53056;SDS011;38940;50.096;4.012;2023-05-27T00:17:03;15.93;;;3.50;;
53056;SDS011;38940;50.096;4.012;2023-05-27T00:19:32;16.10;;;3.60;;
53056;SDS011;38940;50.096;4.012;2023-05-27T00:21:58;16.27;;;3.63;;
53056;SDS011;38940;50.096;4.012;2023-05-27T00:24:24;12.50;;;3.10;;
53056;SDS011;38940;50.096;4.012;2023-05-27T00:26:50;14.52;;;3.45;;
53056;SDS011;38940;50.096;4.012;2023-05-27T00:29:16;14.57;;;3.30;;
53056;SDS011;38940;50.096;4.012;2023-05-27T00:31:42;19.42;;;3.58;;
53056;SDS011;38940;50.096;4.012;2023-05-27T00:34:08;14.05;;;3.50;;
53056;SDS011;38940;50.096;4.012;2023-05-27T00:36:34;16.27;;;3.40;;
53056;SDS011;38940;50.096;4.012;2023-05-27T00:39:00;17.60;;;3.33;;
53056;SDS011;38940;50.096;4.012;2023-05-27T00:41:27;15.27;;;3.53;;
53056;SDS011;38940;50.096;4.012;2023-05-27T00:43:53;20.20;;;3.60;;
53056;SDS011;38940;50.096;4.012;2023-05-27T00:46:19;13.43;;;3.10;;
53056;SDS011;38940;50.096;4.012;2023-05-27T00:48:45;13.40;;;3.47;;
53056;SDS011;38940;50.096;4.012;2023-05-27T00:51:11;20.83;;;3.65;;
53056;SDS011;38940;50.096;4.012;2023-05-27T00:53:41;16.10;;;3.40;;
53056;SDS011;38940;50.096;4.012;2023-05-27T00:56:11;12.57;;;3.63;;
53056;SDS011;38940;50.096;4.012;2023-05-27T00:58:40;14.57;;;3.40;;
53056;SDS011;38940;50.096;4.012;2023-05-27T01:01:06;17.20;;;3.60;;
53056;SDS011;38940;50.096;4.012;2023-05-27T01:03:32;14.60;;;3.80;;
53056;SDS011;38940;50.096;4.012;2023-05-27T01:06:03;13.68;;;3.35;;
53056;SDS011;38940;50.096;4.012;2023-05-27T01:08:51;16.37;;;3.77;;
53056;SDS011;38940;50.096;4.012;2023-05-27T01:11:19;18.63;;;3.72;;
53056;SDS011;38940;50.096;4.012;2023-05-27T01:13:52;15.93;;;3.50;;
53056;SDS011;38940;50.096;4.012;2023-05-27T01:16:20;15.10;;;3.50;;
53056;SDS011;38940;50.096;4.012;2023-05-27T01:18:46;16.75;;;3.83;;
53056;SDS011;38940;50.096;4.012;2023-05-27T01:21:17;16.13;;;3.50;;
53056;SDS011;38940;50.096;4.012;2023-05-27T01:23:43;16.52;;;3.50;;
53056;SDS011;38940;50.096;4.012;2023-05-27T01:26:12;18.10;;;4.00;;
53056;SDS011;38940;50.096;4.012;2023-05-27T01:28:38;17.00;;;3.40;;
53056;SDS011;38940;50.096;4.012;2023-05-27T01:31:06;16.48;;;3.75;;
53056;SDS011;38940;50.096;4.012;2023-05-27T01:33:36;13.15;;;3.63;;
53056;SDS011;38940;50.096;4.012;2023-05-27T01:36:22;16.23;;;3.53;;
53056;SDS011;38940;50.096;4.012;2023-05-27T01:38:49;16.55;;;3.72;;
53056;SDS011;38940;50.096;4.012;2023-05-27T01:41:17;18.30;;;3.97;;
53056;SDS011;38940;50.096;4.012;2023-05-27T01:43:43;14.73;;;3.80;;
53056;SDS011;38940;50.096;4.012;2023-05-27T01:46:09;14.55;;;3.90;;
53056;SDS011;38940;50.096;4.012;2023-05-27T01:48:35;18.45;;;3.70;;
53056;SDS011;38940;50.096;4.012;2023-05-27T01:51:01;14.35;;;3.50;;
53056;SDS011;38940;50.096;4.012;2023-05-27T01:53:27;16.58;;;3.58;;
53056;SDS011;38940;50.096;4.012;2023-05-27T01:55:54;16.73;;;3.63;;
53056;SDS011;38940;50.096;4.012;2023-05-27T01:58:20;15.55;;;3.80;;
53056;SDS011;38940;50.096;4.012;2023-05-27T02:00:46;19.15;;;3.90;;
53056;SDS011;38940;50.096;4.012;2023-05-27T02:03:12;18.63;;;4.20;;
53056;SDS011;38940;50.096;4.012;2023-05-27T02:05:38;17.00;;;3.65;;
53056;SDS011;38940;50.096;4.012;2023-05-27T02:08:05;20.25;;;3.90;;
53056;SDS011;38940;50.096;4.012;2023-05-27T02:10:31;16.05;;;4.10;;
53056;SDS011;38940;50.096;4.012;2023-05-27T02:12:57;16.77;;;3.70;;
53056;SDS011;38940;50.096;4.012;2023-05-27T02:15:23;17.23;;;4.00;;
53056;SDS011;38940;50.096;4.012;2023-05-27T02:17:49;16.83;;;3.80;;
53056;SDS011;38940;50.096;4.012;2023-05-27T02:20:23;16.25;;;4.05;;
53056;SDS011;38940;50.096;4.012;2023-05-27T02:22:50;22.08;;;4.05;;
53056;SDS011;38940;50.096;4.012;2023-05-27T02:25:16;16.23;;;4.30;;
53056;SDS011;38940;50.096;4.012;2023-05-27T02:27:42;19.83;;;4.00;;
53056;SDS011;38940;50.096;4.012;2023-05-27T02:30:12;15.00;;;3.90;;
53056;SDS011;38940;50.096;4.012;2023-05-27T02:32:38;19.27;;;3.80;;
53056;SDS011;38940;50.096;4.012;2023-05-27T02:35:05;16.10;;;4.10;;
53056;SDS011;38940;50.096;4.012;2023-05-27T02:37:32;19.73;;;4.30;;
53056;SDS011;38940;50.096;4.012;2023-05-27T02:39:58;17.00;;;4.17;;
53056;SDS011;38940;50.096;4.012;2023-05-27T02:42:24;17.02;;;3.92;;
53056;SDS011;38940;50.096;4.012;2023-05-27T02:44:50;20.90;;;3.95;;
53056;SDS011;38940;50.096;4.012;2023-05-27T02:47:16;18.98;;;4.07;;
53056;SDS011;38940;50.096;4.012;2023-05-27T02:49:42;16.00;;;3.83;;
53056;SDS011;38940;50.096;4.012;2023-05-27T02:52:08;14.53;;;3.80;;
53056;SDS011;38940;50.096;4.012;2023-05-27T02:54:34;16.77;;;4.17;;
53056;SDS011;38940;50.096;4.012;2023-05-27T02:57:00;18.00;;;4.28;;
53056;SDS011;38940;50.096;4.012;2023-05-27T02:59:26;17.35;;;3.88;;
53056;SDS011;38940;50.096;4.012;2023-05-27T03:01:52;21.67;;;4.68;;
53056;SDS011;38940;50.096;4.012;2023-05-27T03:04:18;19.33;;;4.07;;
53056;SDS011;38940;50.096;4.012;2023-05-27T03:06:46;16.13;;;4.43;;
53056;SDS011;38940;50.096;4.012;2023-05-27T03:09:12;17.42;;;4.30;;
53056;SDS011;38940;50.096;4.012;2023-05-27T03:11:39;15.20;;;3.88;;
53056;SDS011;38940;50.096;4.012;2023-05-27T03:14:05;18.88;;;4.10;;
53056;SDS011;38940;50.096;4.012;2023-05-27T03:16:31;22.17;;;4.10;;
53056;SDS011;38940;50.096;4.012;2023-05-27T03:18:57;16.13;;;3.87;;
53056;SDS011;38940;50.096;4.012;2023-05-27T03:21:23;17.30;;;4.30;;
53056;SDS011;38940;50.096;4.012;2023-05-27T03:23:49;18.08;;;4.50;;
53056;SDS011;38940;50.096;4.012;2023-05-27T03:26:15;22.67;;;4.40;;
53056;SDS011;38940;50.096;4.012;2023-05-27T03:28:41;23.08;;;4.53;;
53056;SDS011;38940;50.096;4.012;2023-05-27T03:31:07;17.20;;;4.00;;
53056;SDS011;38940;50.096;4.012;2023-05-27T03:33:33;16.48;;;4.22;;
53056;SDS011;38940;50.096;4.012;2023-05-27T03:35:59;22.77;;;4.38;;
53056;SDS011;38940;50.096;4.012;2023-05-27T03:38:25;15.98;;;4.30;;
53056;SDS011;38940;50.096;4.012;2023-05-27T03:40:51;16.65;;;4.30;;
53056;SDS011;38940;50.096;4.012;2023-05-27T03:43:17;17.38;;;4.07;;
53056;SDS011;38940;50.096;4.012;2023-05-27T03:45:43;15.82;;;4.20;;
53056;SDS011;38940;50.096;4.012;2023-05-27T03:48:09;17.52;;;4.47;;
53056;SDS011;38940;50.096;4.012;2023-05-27T03:50:35;19.48;;;4.60;;
53056;SDS011;38940;50.096;4.012;2023-05-27T03:53:01;17.63;;;4.47;;
53056;SDS011;38940;50.096;4.012;2023-05-27T03:55:28;18.40;;;4.13;;
53056;SDS011;38940;50.096;4.012;2023-05-27T03:57:54;16.23;;;4.43;;
53056;SDS011;38940;50.096;4.012;2023-05-27T04:00:20;18.13;;;4.72;;
53056;SDS011;38940;50.096;4.012;2023-05-27T04:02:46;21.10;;;4.50;;
53056;SDS011;38940;50.096;4.012;2023-05-27T04:05:12;19.83;;;4.32;;
53056;SDS011;38940;50.096;4.012;2023-05-27T04:07:38;17.65;;;4.18;;
53056;SDS011;38940;50.096;4.012;2023-05-27T04:10:04;19.95;;;4.38;;
53056;SDS011;38940;50.096;4.012;2023-05-27T04:12:30;19.50;;;4.18;;
53056;SDS011;38940;50.096;4.012;2023-05-27T04:14:56;16.70;;;4.43;;
53056;SDS011;38940;50.096;4.012;2023-05-27T04:17:23;17.17;;;4.35;;
53056;SDS011;38940;50.096;4.012;2023-05-27T04:19:49;16.90;;;4.70;;
53056;SDS011;38940;50.096;4.012;2023-05-27T04:22:15;22.88;;;4.30;;
53056;SDS011;38940;50.096;4.012;2023-05-27T04:24:41;21.73;;;4.50;;
53056;SDS011;38940;50.096;4.012;2023-05-27T04:27:08;20.00;;;4.05;;
53056;SDS011;38940;50.096;4.012;2023-05-27T04:29:34;18.27;;;4.75;;
53056;SDS011;38940;50.096;4.012;2023-05-27T04:32:03;21.45;;;4.65;;
53056;SDS011;38940;50.096;4.012;2023-05-27T04:34:29;20.52;;;4.40;;
53056;SDS011;38940;50.096;4.012;2023-05-27T04:36:55;21.23;;;4.50;;
53056;SDS011;38940;50.096;4.012;2023-05-27T04:39:21;18.75;;;4.82;;
53056;SDS011;38940;50.096;4.012;2023-05-27T04:41:47;18.13;;;4.25;;
53056;SDS011;38940;50.096;4.012;2023-05-27T04:44:13;19.77;;;4.80;;
53056;SDS011;38940;50.096;4.012;2023-05-27T04:46:39;21.13;;;4.80;;
53056;SDS011;38940;50.096;4.012;2023-05-27T04:49:08;17.05;;;4.38;;
53056;SDS011;38940;50.096;4.012;2023-05-27T04:51:34;18.77;;;4.75;;
53056;SDS011;38940;50.096;4.012;2023-05-27T04:54:00;22.13;;;5.03;;
53056;SDS011;38940;50.096;4.012;2023-05-27T04:56:26;18.73;;;4.90;;
53056;SDS011;38940;50.096;4.012;2023-05-27T04:58:53;20.70;;;4.70;;
53056;SDS011;38940;50.096;4.012;2023-05-27T05:01:21;18.17;;;4.33;;
53056;SDS011;38940;50.096;4.012;2023-05-27T05:03:49;18.45;;;4.47;;
53056;SDS011;38940;50.096;4.012;2023-05-27T05:06:36;20.50;;;4.60;;
53056;SDS011;38940;50.096;4.012;2023-05-27T05:09:03;17.23;;;4.40;;
53056;SDS011;38940;50.096;4.012;2023-05-27T05:11:29;23.52;;;4.78;;
53056;SDS011;38940;50.096;4.012;2023-05-27T05:13:55;21.50;;;5.13;;
53056;SDS011;38940;50.096;4.012;2023-05-27T05:16:21;20.42;;;4.40;;
53056;SDS011;38940;50.096;4.012;2023-05-27T05:18:47;19.88;;;4.78;;
53056;SDS011;38940;50.096;4.012;2023-05-27T05:21:13;19.43;;;4.40;;
53056;SDS011;38940;50.096;4.012;2023-05-27T05:23:39;17.30;;;4.93;;
53056;SDS011;38940;50.096;4.012;2023-05-27T05:26:06;21.45;;;4.80;;
53056;SDS011;38940;50.096;4.012;2023-05-27T05:28:33;23.77;;;4.57;;
53056;SDS011;38940;50.096;4.012;2023-05-27T05:30:59;17.85;;;4.65;;
53056;SDS011;38940;50.096;4.012;2023-05-27T05:33:25;21.48;;;4.65;;
53056;SDS011;38940;50.096;4.012;2023-05-27T05:35:53;18.97;;;4.67;;
53056;SDS011;38940;50.096;4.012;2023-05-27T05:38:19;19.07;;;4.67;;
53056;SDS011;38940;50.096;4.012;2023-05-27T05:40:45;22.85;;;4.90;;
53056;SDS011;38940;50.096;4.012;2023-05-27T05:43:14;20.48;;;4.50;;
53056;SDS011;38940;50.096;4.012;2023-05-27T05:45:40;17.55;;;4.93;;
53056;SDS011;38940;50.096;4.012;2023-05-27T05:48:06;19.10;;;5.13;;
53056;SDS011;38940;50.096;4.012;2023-05-27T05:50:32;17.10;;;4.33;;
53056;SDS011;38940;50.096;4.012;2023-05-27T05:52:58;19.38;;;4.97;;
53056;SDS011;38940;50.096;4.012;2023-05-27T05:55:24;16.00;;;4.65;;
53056;SDS011;38940;50.096;4.012;2023-05-27T05:57:50;20.05;;;5.05;;
53056;SDS011;38940;50.096;4.012;2023-05-27T06:00:16;20.88;;;5.15;;
53056;SDS011;38940;50.096;4.012;2023-05-27T06:02:43;16.08;;;4.47;;
53056;SDS011;38940;50.096;4.012;2023-05-27T06:05:09;16.92;;;4.32;;
53056;SDS011;38940;50.096;4.012;2023-05-27T06:07:35;20.40;;;5.15;;
53056;SDS011;38940;50.096;4.012;2023-05-27T06:10:01;18.40;;;4.78;;
53056;SDS011;38940;50.096;4.012;2023-05-27T06:12:27;20.63;;;4.88;;
53056;SDS011;38940;50.096;4.012;2023-05-27T06:14:53;19.90;;;4.90;;
53056;SDS011;38940;50.096;4.012;2023-05-27T06:17:19;18.83;;;4.40;;
53056;SDS011;38940;50.096;4.012;2023-05-27T06:19:45;19.45;;;4.75;;
53056;SDS011;38940;50.096;4.012;2023-05-27T06:22:11;23.23;;;4.75;;
53056;SDS011;38940;50.096;4.012;2023-05-27T06:24:37;16.40;;;4.55;;
53056;SDS011;38940;50.096;4.012;2023-05-27T06:27:03;17.83;;;5.07;;
53056;SDS011;38940;50.096;4.012;2023-05-27T06:29:29;17.88;;;4.65;;
53056;SDS011;38940;50.096;4.012;2023-05-27T06:31:55;18.67;;;4.83;;
53056;SDS011;38940;50.096;4.012;2023-05-27T06:34:21;19.65;;;4.70;;
53056;SDS011;38940;50.096;4.012;2023-05-27T06:36:47;21.83;;;5.30;;
53056;SDS011;38940;50.096;4.012;2023-05-27T06:39:14;17.98;;;4.60;;
53056;SDS011;38940;50.096;4.012;2023-05-27T06:41:40;18.70;;;5.17;;
53056;SDS011;38940;50.096;4.012;2023-05-27T06:44:06;26.03;;;5.70;;
53056;SDS011;38940;50.096;4.012;2023-05-27T06:46:32;18.20;;;4.72;;
53056;SDS011;38940;50.096;4.012;2023-05-27T06:48:58;23.50;;;5.07;;
53056;SDS011;38940;50.096;4.012;2023-05-27T06:51:24;19.98;;;5.07;;
53056;SDS011;38940;50.096;4.012;2023-05-27T06:53:52;18.20;;;4.65;;
53056;SDS011;38940;50.096;4.012;2023-05-27T06:56:18;22.80;;;5.03;;
53056;SDS011;38940;50.096;4.012;2023-05-27T06:58:44;21.50;;;4.88;;
53056;SDS011;38940;50.096;4.012;2023-05-27T07:01:11;19.42;;;4.63;;
53056;SDS011;38940;50.096;4.012;2023-05-27T07:03:37;18.93;;;5.00;;
53056;SDS011;38940;50.096;4.012;2023-05-27T07:06:03;16.30;;;4.95;;
53056;SDS011;38940;50.096;4.012;2023-05-27T07:08:29;17.70;;;4.80;;
53056;SDS011;38940;50.096;4.012;2023-05-27T07:10:55;21.98;;;5.53;;
53056;SDS011;38940;50.096;4.012;2023-05-27T07:13:21;17.27;;;4.65;;
53056;SDS011;38940;50.096;4.012;2023-05-27T07:15:47;20.77;;;5.10;;
53056;SDS011;38940;50.096;4.012;2023-05-27T07:18:13;18.77;;;4.57;;
53056;SDS011;38940;50.096;4.012;2023-05-27T07:20:39;18.17;;;4.93;;
53056;SDS011;38940;50.096;4.012;2023-05-27T07:23:05;20.60;;;4.70;;
53056;SDS011;38940;50.096;4.012;2023-05-27T07:25:31;19.77;;;5.03;;
53056;SDS011;38940;50.096;4.012;2023-05-27T07:27:57;17.65;;;4.72;;
53056;SDS011;38940;50.096;4.012;2023-05-27T07:30:23;19.07;;;5.23;;
53056;SDS011;38940;50.096;4.012;2023-05-27T07:32:49;23.55;;;5.03;;
53056;SDS011;38940;50.096;4.012;2023-05-27T07:35:15;18.38;;;4.80;;
53056;SDS011;38940;50.096;4.012;2023-05-27T07:37:41;13.40;;;4.72;;
53056;SDS011;38940;50.096;4.012;2023-05-27T07:40:07;17.10;;;5.25;;
53056;SDS011;38940;50.096;4.012;2023-05-27T07:42:33;18.73;;;4.70;;
53056;SDS011;38940;50.096;4.012;2023-05-27T07:44:59;20.35;;;4.80;;
53056;SDS011;38940;50.096;4.012;2023-05-27T07:47:25;17.87;;;4.73;;
53056;SDS011;38940;50.096;4.012;2023-05-27T07:49:51;16.45;;;4.30;;
53056;SDS011;38940;50.096;4.012;2023-05-27T07:52:17;19.17;;;4.75;;
53056;SDS011;38940;50.096;4.012;2023-05-27T07:54:43;19.85;;;5.15;;
53056;SDS011;38940;50.096;4.012;2023-05-27T07:57:09;20.27;;;4.88;;
53056;SDS011;38940;50.096;4.012;2023-05-27T07:59:35;17.73;;;4.83;;
53056;SDS011;38940;50.096;4.012;2023-05-27T08:02:01;15.82;;;4.47;;
53056;SDS011;38940;50.096;4.012;2023-05-27T08:04:27;18.42;;;4.38;;
53056;SDS011;38940;50.096;4.012;2023-05-27T08:06:53;22.17;;;5.10;;
53056;SDS011;38940;50.096;4.012;2023-05-27T08:09:19;20.70;;;4.60;;
53056;SDS011;38940;50.096;4.012;2023-05-27T08:11:46;16.05;;;4.45;;
53056;SDS011;38940;50.096;4.012;2023-05-27T08:14:12;18.07;;;4.70;;
53056;SDS011;38940;50.096;4.012;2023-05-27T08:16:38;22.90;;;4.78;;
53056;SDS011;38940;50.096;4.012;2023-05-27T08:19:04;20.10;;;5.18;;
53056;SDS011;38940;50.096;4.012;2023-05-27T08:21:30;19.10;;;4.38;;
53056;SDS011;38940;50.096;4.012;2023-05-27T08:23:56;17.67;;;4.47;;
53056;SDS011;38940;50.096;4.012;2023-05-27T08:26:22;16.90;;;4.72;;
53056;SDS011;38940;50.096;4.012;2023-05-27T08:28:48;14.13;;;4.57;;
53056;SDS011;38940;50.096;4.012;2023-05-27T08:31:14;21.83;;;4.68;;
53056;SDS011;38940;50.096;4.012;2023-05-27T08:33:40;20.20;;;4.80;;
53056;SDS011;38940;50.096;4.012;2023-05-27T08:36:06;18.67;;;4.30;;
53056;SDS011;38940;50.096;4.012;2023-05-27T08:38:32;17.95;;;4.63;;
53056;SDS011;38940;50.096;4.012;2023-05-27T08:40:58;20.10;;;4.70;;
53056;SDS011;38940;50.096;4.012;2023-05-27T08:43:24;15.82;;;4.88;;
53056;SDS011;38940;50.096;4.012;2023-05-27T08:45:50;16.07;;;4.43;;
53056;SDS011;38940;50.096;4.012;2023-05-27T08:48:16;13.75;;;4.25;;
53056;SDS011;38940;50.096;4.012;2023-05-27T08:50:42;20.00;;;4.82;;
53056;SDS011;38940;50.096;4.012;2023-05-27T08:53:10;18.10;;;4.65;;
53056;SDS011;38940;50.096;4.012;2023-05-27T08:55:37;23.02;;;5.20;;
53056;SDS011;38940;50.096;4.012;2023-05-27T08:58:03;19.20;;;4.63;;
53056;SDS011;38940;50.096;4.012;2023-05-27T09:00:31;18.67;;;4.63;;
53056;SDS011;38940;50.096;4.012;2023-05-27T09:02:57;20.30;;;4.63;;
53056;SDS011;38940;50.096;4.012;2023-05-27T09:05:25;16.70;;;4.40;;
53056;SDS011;38940;50.096;4.012;2023-05-27T09:07:51;14.82;;;4.25;;
53056;SDS011;38940;50.096;4.012;2023-05-27T09:10:17;20.55;;;4.03;;
53056;SDS011;38940;50.096;4.012;2023-05-27T09:12:44;15.63;;;4.55;;
53056;SDS011;38940;50.096;4.012;2023-05-27T09:15:10;21.58;;;4.90;;
53056;SDS011;38940;50.096;4.012;2023-05-27T09:17:43;17.30;;;4.60;;
53056;SDS011;38940;50.096;4.012;2023-05-27T09:20:10;20.45;;;4.50;;
53056;SDS011;38940;50.096;4.012;2023-05-27T09:22:37;17.80;;;4.60;;
53056;SDS011;38940;50.096;4.012;2023-05-27T09:25:03;21.83;;;4.60;;
53056;SDS011;38940;50.096;4.012;2023-05-27T09:27:30;23.88;;;4.90;;
53056;SDS011;38940;50.096;4.012;2023-05-27T09:29:57;16.38;;;4.47;;
53056;SDS011;38940;50.096;4.012;2023-05-27T09:32:24;23.73;;;4.55;;
53056;SDS011;38940;50.096;4.012;2023-05-27T09:34:50;17.38;;;4.57;;
53056;SDS011;38940;50.096;4.012;2023-05-27T09:37:17;19.00;;;4.75;;
53056;SDS011;38940;50.096;4.012;2023-05-27T09:39:46;16.67;;;4.47;;
53056;SDS011;38940;50.096;4.012;2023-05-27T09:42:13;19.00;;;4.47;;
53056;SDS011;38940;50.096;4.012;2023-05-27T09:44:39;16.40;;;3.93;;
53056;SDS011;38940;50.096;4.012;2023-05-27T09:47:05;20.40;;;4.80;;
53056;SDS011;38940;50.096;4.012;2023-05-27T09:49:33;19.30;;;5.38;;
53056;SDS011;38940;50.096;4.012;2023-05-27T09:52:02;19.35;;;4.13;;
53056;SDS011;38940;50.096;4.012;2023-05-27T09:54:29;18.67;;;4.60;;
53056;SDS011;38940;50.096;4.012;2023-05-27T09:56:56;19.00;;;4.50;;
53056;SDS011;38940;50.096;4.012;2023-05-27T09:59:22;19.70;;;4.72;;
53056;SDS011;38940;50.096;4.012;2023-05-27T10:01:48;17.75;;;4.45;;
53056;SDS011;38940;50.096;4.012;2023-05-27T10:04:16;17.17;;;4.15;;
53056;SDS011;38940;50.096;4.012;2023-05-27T10:06:44;19.67;;;4.07;;
53056;SDS011;38940;50.096;4.012;2023-05-27T10:09:10;16.48;;;4.47;;
53056;SDS011;38940;50.096;4.012;2023-05-27T10:11:38;19.42;;;4.28;;
53056;SDS011;38940;50.096;4.012;2023-05-27T10:14:05;16.20;;;4.03;;
53056;SDS011;38940;50.096;4.012;2023-05-27T10:16:31;23.10;;;4.38;;
53056;SDS011;38940;50.096;4.012;2023-05-27T10:18:58;22.73;;;4.00;;
53056;SDS011;38940;50.096;4.012;2023-05-27T10:21:28;19.65;;;4.18;;
53056;SDS011;38940;50.096;4.012;2023-05-27T10:26:36;17.67;;;4.35;;
53056;SDS011;38940;50.096;4.012;2023-05-27T10:29:06;21.27;;;4.50;;
53056;SDS011;38940;50.096;4.012;2023-05-27T10:31:36;18.80;;;4.28;;
53056;SDS011;38940;50.096;4.012;2023-05-27T10:34:05;15.07;;;4.18;;
53056;SDS011;38940;50.096;4.012;2023-05-27T10:36:31;13.23;;;3.72;;
53056;SDS011;38940;50.096;4.012;2023-05-27T10:38:59;13.57;;;4.27;;
53056;SDS011;38940;50.096;4.012;2023-05-27T10:41:26;14.25;;;4.03;;
53056;SDS011;38940;50.096;4.012;2023-05-27T10:43:55;18.20;;;4.32;;
53056;SDS011;38940;50.096;4.012;2023-05-27T10:46:22;24.83;;;4.25;;
53056;SDS011;38940;50.096;4.012;2023-05-27T10:48:48;21.95;;;4.22;;
53056;SDS011;38940;50.096;4.012;2023-05-27T10:51:14;15.80;;;4.20;;
53056;SDS011;38940;50.096;4.012;2023-05-27T10:53:40;18.50;;;4.28;;
53056;SDS011;38940;50.096;4.012;2023-05-27T10:56:06;15.30;;;3.93;;
53056;SDS011;38940;50.096;4.012;2023-05-27T10:58:36;17.58;;;4.25;;
53056;SDS011;38940;50.096;4.012;2023-05-27T11:01:13;17.58;;;4.30;;
53056;SDS011;38940;50.096;4.012;2023-05-27T11:03:43;17.83;;;3.95;;
53056;SDS011;38940;50.096;4.012;2023-05-27T11:06:10;18.45;;;4.55;;
53056;SDS011;38940;50.096;4.012;2023-05-27T11:08:36;18.05;;;4.13;;
53056;SDS011;38940;50.096;4.012;2023-05-27T11:11:06;12.98;;;3.78;;
53056;SDS011;38940;50.096;4.012;2023-05-27T11:13:40;18.67;;;4.28;;
53056;SDS011;38940;50.096;4.012;2023-05-27T11:16:10;18.13;;;5.00;;
53056;SDS011;38940;50.096;4.012;2023-05-27T11:21:02;17.15;;;3.83;;
53056;SDS011;38940;50.096;4.012;2023-05-27T11:23:35;16.57;;;4.10;;
53056;SDS011;38940;50.096;4.012;2023-05-27T11:26:02;18.27;;;4.40;;
53056;SDS011;38940;50.096;4.012;2023-05-27T11:28:28;33.38;;;4.40;;
53056;SDS011;38940;50.096;4.012;2023-05-27T11:30:59;14.88;;;3.80;;
53056;SDS011;38940;50.096;4.012;2023-05-27T11:33:34;12.13;;;4.03;;
53056;SDS011;38940;50.096;4.012;2023-05-27T11:36:04;15.60;;;3.80;;
53056;SDS011;38940;50.096;4.012;2023-05-27T11:38:30;14.27;;;4.05;;
53056;SDS011;38940;50.096;4.012;2023-05-27T11:41:06;15.55;;;3.95;;
53056;SDS011;38940;50.096;4.012;2023-05-27T11:43:32;14.47;;;4.13;;
53056;SDS011;38940;50.096;4.012;2023-05-27T11:46:02;16.13;;;4.03;;
53056;SDS011;38940;50.096;4.012;2023-05-27T11:48:28;14.07;;;3.90;;
53056;SDS011;38940;50.096;4.012;2023-05-27T11:50:54;18.58;;;3.83;;
53056;SDS011;38940;50.096;4.012;2023-05-27T11:53:21;16.97;;;4.07;;
53056;SDS011;38940;50.096;4.012;2023-05-27T11:55:47;16.93;;;3.83;;
53056;SDS011;38940;50.096;4.012;2023-05-27T11:58:13;12.38;;;3.45;;
53056;SDS011;38940;50.096;4.012;2023-05-27T12:00:39;17.48;;;3.95;;
53056;SDS011;38940;50.096;4.012;2023-05-27T12:03:05;18.55;;;4.57;;
53056;SDS011;38940;50.096;4.012;2023-05-27T12:05:31;15.52;;;3.88;;
53056;SDS011;38940;50.096;4.012;2023-05-27T12:07:57;14.18;;;3.88;;
53056;SDS011;38940;50.096;4.012;2023-05-27T12:10:23;16.95;;;4.00;;
53056;SDS011;38940;50.096;4.012;2023-05-27T12:12:49;15.77;;;4.00;;
53056;SDS011;38940;50.096;4.012;2023-05-27T12:15:15;14.95;;;4.00;;
53056;SDS011;38940;50.096;4.012;2023-05-27T12:17:41;17.58;;;4.10;;
53056;SDS011;38940;50.096;4.012;2023-05-27T12:20:07;14.10;;;4.33;;
53056;SDS011;38940;50.096;4.012;2023-05-27T12:22:33;17.08;;;4.22;;
53056;SDS011;38940;50.096;4.012;2023-05-27T12:24:59;16.92;;;3.90;;
53056;SDS011;38940;50.096;4.012;2023-05-27T12:27:25;15.52;;;3.90;;
53056;SDS011;38940;50.096;4.012;2023-05-27T12:29:51;19.03;;;4.03;;
53056;SDS011;38940;50.096;4.012;2023-05-27T12:32:17;15.55;;;3.65;;
53056;SDS011;38940;50.096;4.012;2023-05-27T12:34:43;15.20;;;3.80;;
53056;SDS011;38940;50.096;4.012;2023-05-27T12:37:09;15.27;;;3.85;;
53056;SDS011;38940;50.096;4.012;2023-05-27T12:39:35;14.83;;;3.40;;
53056;SDS011;38940;50.096;4.012;2023-05-27T12:42:01;13.55;;;3.70;;
53056;SDS011;38940;50.096;4.012;2023-05-27T12:44:28;15.60;;;3.78;;
53056;SDS011;38940;50.096;4.012;2023-05-27T12:46:54;18.13;;;4.25;;
53056;SDS011;38940;50.096;4.012;2023-05-27T12:49:20;13.18;;;3.55;;
53056;SDS011;38940;50.096;4.012;2023-05-27T12:51:46;18.70;;;3.92;;
53056;SDS011;38940;50.096;4.012;2023-05-27T12:54:12;15.48;;;4.15;;
53056;SDS011;38940;50.096;4.012;2023-05-27T12:56:38;15.30;;;3.72;;
53056;SDS011;38940;50.096;4.012;2023-05-27T12:59:04;14.40;;;3.47;;
53056;SDS011;38940;50.096;4.012;2023-05-27T13:01:30;13.85;;;3.83;;
53056;SDS011;38940;50.096;4.012;2023-05-27T13:03:56;14.18;;;4.00;;
53056;SDS011;38940;50.096;4.012;2023-05-27T13:06:22;11.60;;;3.50;;
53056;SDS011;38940;50.096;4.012;2023-05-27T13:08:48;13.55;;;3.53;;
53056;SDS011;38940;50.096;4.012;2023-05-27T13:11:14;15.80;;;4.07;;
53056;SDS011;38940;50.096;4.012;2023-05-27T13:13:40;13.60;;;3.53;;
53056;SDS011;38940;50.096;4.012;2023-05-27T13:16:06;15.65;;;3.55;;
53056;SDS011;38940;50.096;4.012;2023-05-27T13:18:32;14.38;;;3.67;;
53056;SDS011;38940;50.096;4.012;2023-05-27T13:20:58;16.30;;;3.60;;
53056;SDS011;38940;50.096;4.012;2023-05-27T13:23:24;15.05;;;3.95;;
53056;SDS011;38940;50.096;4.012;2023-05-27T13:25:50;15.82;;;3.50;;
53056;SDS011;38940;50.096;4.012;2023-05-27T13:28:17;16.90;;;3.92;;
53056;SDS011;38940;50.096;4.012;2023-05-27T13:30:44;17.30;;;3.70;;
53056;SDS011;38940;50.096;4.012;2023-05-27T13:33:10;14.20;;;3.92;;
53056;SDS011;38940;50.096;4.012;2023-05-27T13:35:36;12.32;;;3.60;;
53056;SDS011;38940;50.096;4.012;2023-05-27T13:38:02;17.75;;;3.67;;
53056;SDS011;38940;50.096;4.012;2023-05-27T13:40:28;12.15;;;3.47;;
53056;SDS011;38940;50.096;4.012;2023-05-27T13:42:54;11.40;;;3.40;;
53056;SDS011;38940;50.096;4.012;2023-05-27T13:45:20;15.80;;;4.00;;
53056;SDS011;38940;50.096;4.012;2023-05-27T13:47:46;13.23;;;3.25;;
53056;SDS011;38940;50.096;4.012;2023-05-27T13:50:12;17.08;;;3.60;;
53056;SDS011;38940;50.096;4.012;2023-05-27T13:52:38;10.82;;;3.05;;
53056;SDS011;38940;50.096;4.012;2023-05-27T13:55:05;14.63;;;3.50;;
53056;SDS011;38940;50.096;4.012;2023-05-27T13:57:31;15.10;;;3.50;;
53056;SDS011;38940;50.096;4.012;2023-05-27T13:59:57;15.82;;;3.88;;
53056;SDS011;38940;50.096;4.012;2023-05-27T14:02:23;21.65;;;4.28;;
53056;SDS011;38940;50.096;4.012;2023-05-27T14:04:49;16.90;;;3.65;;
53056;SDS011;38940;50.096;4.012;2023-05-27T14:07:15;14.30;;;3.45;;
53056;SDS011;38940;50.096;4.012;2023-05-27T14:09:42;15.90;;;2.50;;
53056;SDS011;38940;50.096;4.012;2023-05-27T14:12:08;17.38;;;3.83;;
53056;SDS011;38940;50.096;4.012;2023-05-27T14:14:34;14.52;;;3.78;;
53056;SDS011;38940;50.096;4.012;2023-05-27T14:17:01;13.43;;;3.53;;
53056;SDS011;38940;50.096;4.012;2023-05-27T14:19:27;3.20;;;1.45;;
53056;SDS011;38940;50.096;4.012;2023-05-27T14:21:53;4.78;;;1.50;;
53056;SDS011;38940;50.096;4.012;2023-05-27T14:24:19;4.57;;;1.50;;
53056;SDS011;38940;50.096;4.012;2023-05-27T14:26:45;4.00;;;1.55;;
53056;SDS011;38940;50.096;4.012;2023-05-27T14:29:11;9.50;;;1.40;;
53056;SDS011;38940;50.096;4.012;2023-05-27T14:31:37;5.95;;;1.60;;
53056;SDS011;38940;50.096;4.012;2023-05-27T14:34:03;4.35;;;1.45;;
53056;SDS011;38940;50.096;4.012;2023-05-27T14:36:30;7.20;;;1.60;;